Weather at Whale Cove Airport

Public forecast

Using degrees Celsius for public forecast. Weather courtesy of forecast.io.

Current aviation weather report (METAR) for Whale Cove Airport

Retrieved 2021/04/13 18:00 UTC (1 hour ago):

CYXN 131800Z 29003KT 15SM FEW010 M18/M22 A3086 RMK SC1 SC TR SLP454

Closest aviation forecast (TAF) to Whale Cove Airport

Closest forecast is Rankin Inlet Airport, 36.8 nm (68.2 km) NNE. Retrieved 2021/04/13 18:39 UTC (30 minutes ago):

TAF CYRT 131738Z 1318/1406 35010KT P6SM FEW250 BECMG 1321/1323 20008KT BKN120 FM140300 18015KT P6SM BKN100 RMK NXT FCST BY 140000Z